createdAt,value
2023-03-22T00:01:20.106Z,15.20
2023-03-22T00:03:48.387Z,14.98
2023-03-22T00:06:16.681Z,15.82
2023-03-22T00:08:44.220Z,13.77
2023-03-22T00:11:12.824Z,19.30
2023-03-22T00:13:42.962Z,21.45
2023-03-22T00:16:11.111Z,18.48
2023-03-22T00:18:38.092Z,15.40
2023-03-22T00:21:05.519Z,15.93
2023-03-22T00:23:32.455Z,17.85
2023-03-22T00:25:59.528Z,18.63
2023-03-22T00:28:26.414Z,15.52
2023-03-22T00:30:56.576Z,15.85
2023-03-22T00:33:30.983Z,16.67
2023-03-22T00:36:00.344Z,17.75
2023-03-22T00:38:42.582Z,21.55
2023-03-22T00:41:21.924Z,25.10
2023-03-22T00:43:49.874Z,22.65
2023-03-22T00:46:19.820Z,19.45
2023-03-22T00:48:46.916Z,21.95
2023-03-22T00:51:15.611Z,15.00
2023-03-22T00:53:43.990Z,14.80
2023-03-22T00:56:16.190Z,16.42
2023-03-22T00:58:56.003Z,14.55
2023-03-22T01:01:23.423Z,15.57
2023-03-22T01:03:50.790Z,12.75
2023-03-22T01:06:18.669Z,18.52
2023-03-22T01:08:45.999Z,14.20
2023-03-22T01:11:13.242Z,18.98
2023-03-22T01:13:41.859Z,22.15
2023-03-22T01:16:10.465Z,20.70
2023-03-22T01:18:37.817Z,19.27
2023-03-22T01:21:05.895Z,18.80
2023-03-22T01:23:32.843Z,18.00
2023-03-22T01:26:00.256Z,16.75
2023-03-22T01:28:28.233Z,17.02
2023-03-22T01:30:56.055Z,19.52
2023-03-22T01:33:23.196Z,21.33
2023-03-22T01:35:51.574Z,20.65
2023-03-22T01:38:19.215Z,22.38
2023-03-22T01:41:04.126Z,21.67
2023-03-22T01:43:34.503Z,17.15
2023-03-22T01:46:02.141Z,17.23
2023-03-22T01:48:46.033Z,18.05
2023-03-22T01:51:20.460Z,19.52
2023-03-22T01:54:32.962Z,17.13
2023-03-22T01:57:04.075Z,15.68
2023-03-22T01:59:42.989Z,21.25
2023-03-22T02:02:19.240Z,17.33
2023-03-22T02:04:58.194Z,15.07
2023-03-22T02:07:28.314Z,14.80
2023-03-22T02:09:56.868Z,17.73
2023-03-22T02:12:27.561Z,17.13
2023-03-22T02:15:08.314Z,17.90
2023-03-22T02:21:23.741Z,20.90
2023-03-22T02:23:59.614Z,18.20
2023-03-22T02:26:29.561Z,19.40
2023-03-22T02:29:15.687Z,23.98
2023-03-22T02:32:02.946Z,22.42
2023-03-22T02:34:44.498Z,25.25
2023-03-22T02:37:36.062Z,24.88
2023-03-22T02:40:14.871Z,27.23
2023-03-22T02:43:01.467Z,18.43
2023-03-22T02:45:44.909Z,22.40
2023-03-22T02:48:42.084Z,18.65
2023-03-22T02:51:12.244Z,20.33
2023-03-22T02:54:09.029Z,15.65
2023-03-22T02:56:47.358Z,16.23
2023-03-22T02:59:17.096Z,13.70
2023-03-22T03:01:53.922Z,14.70
2023-03-22T03:04:26.816Z,17.67
2023-03-22T03:06:56.657Z,18.25
2023-03-22T03:11:53.184Z,16.50
2023-03-22T03:14:31.877Z,20.70
2023-03-22T03:17:15.984Z,17.58
2023-03-22T03:20:08.649Z,14.95
2023-03-22T03:22:44.884Z,15.05
2023-03-22T03:25:34.547Z,14.60
2023-03-22T03:28:08.685Z,15.13
2023-03-22T03:30:43.212Z,15.35
2023-03-22T03:33:18.468Z,17.95
2023-03-22T03:35:55.089Z,15.88
2023-03-22T03:38:27.449Z,15.35
2023-03-22T03:41:03.208Z,15.80
2023-03-22T03:43:31.784Z,13.65
2023-03-22T03:46:00.049Z,13.73
2023-03-22T03:50:59.098Z,17.55
2023-03-22T03:53:26.448Z,14.20
2023-03-22T03:55:53.514Z,13.95
2023-03-22T03:58:20.757Z,13.50
2023-03-22T04:00:48.913Z,12.65
2023-03-22T04:03:25.357Z,13.77
2023-03-22T04:06:04.928Z,17.33
2023-03-22T04:08:36.871Z,16.33
2023-03-22T04:11:04.348Z,13.68
2023-03-22T04:13:32.055Z,12.55
2023-03-22T04:16:02.509Z,15.45
2023-03-22T04:18:33.928Z,14.23
2023-03-22T04:21:05.487Z,17.42
2023-03-22T04:23:41.048Z,13.57
2023-03-22T04:26:08.238Z,18.92
2023-03-22T04:28:46.225Z,15.45
2023-03-22T04:31:13.307Z,15.27
2023-03-22T04:33:56.599Z,17.80
2023-03-22T04:36:45.243Z,13.30
2023-03-22T04:39:24.036Z,14.00
2023-03-22T04:42:10.672Z,19.15
2023-03-22T04:44:38.354Z,16.42
2023-03-22T04:47:05.379Z,15.55
2023-03-22T04:49:33.479Z,16.58
2023-03-22T04:52:00.622Z,16.98
2023-03-22T04:54:37.828Z,23.10
2023-03-22T04:57:06.126Z,16.48
2023-03-22T04:59:38.773Z,17.70
2023-03-22T05:02:06.049Z,19.15
2023-03-22T05:04:40.667Z,17.00
2023-03-22T05:07:16.868Z,24.73
2023-03-22T05:09:50.740Z,17.42
2023-03-22T05:12:18.202Z,20.15
2023-03-22T05:14:50.801Z,19.48
2023-03-22T05:17:22.909Z,19.58
2023-03-22T05:22:22.406Z,19.55
2023-03-22T05:24:51.337Z,19.52
2023-03-22T05:27:31.830Z,21.55
2023-03-22T05:30:34.443Z,23.45
2023-03-22T05:33:13.264Z,21.38
2023-03-22T05:35:44.868Z,16.90
2023-03-22T05:38:12.214Z,17.85
2023-03-22T05:40:44.966Z,21.65
2023-03-22T05:43:12.400Z,17.10
2023-03-22T05:45:46.648Z,18.42
2023-03-22T05:48:49.173Z,16.45
2023-03-22T05:51:19.120Z,24.95
2023-03-22T05:53:49.554Z,15.68
2023-03-22T05:56:24.424Z,22.27
2023-03-22T05:58:59.142Z,16.93
2023-03-22T06:01:26.120Z,20.33
2023-03-22T06:04:28.600Z,17.85
2023-03-22T06:06:59.830Z,23.45
2023-03-22T06:09:35.966Z,19.10
2023-03-22T06:12:07.067Z,23.08
2023-03-22T06:14:34.356Z,20.13
2023-03-22T06:17:15.184Z,17.90
2023-03-22T06:19:52.016Z,20.08
2023-03-22T06:22:20.335Z,16.90
2023-03-22T06:24:48.373Z,18.83
2023-03-22T06:27:21.903Z,20.90
2023-03-22T06:29:50.957Z,21.58
2023-03-22T06:32:23.649Z,23.35
2023-03-22T06:34:56.978Z,24.70
2023-03-22T06:37:26.223Z,26.02
2023-03-22T06:39:54.478Z,22.63
2023-03-22T06:42:24.354Z,19.40
2023-03-22T06:45:01.683Z,19.30
2023-03-22T06:47:34.595Z,19.27
2023-03-22T06:50:01.448Z,20.73
2023-03-22T06:52:48.201Z,19.75
2023-03-22T06:55:15.923Z,19.08
2023-03-22T06:57:42.973Z,23.77
2023-03-22T07:00:10.797Z,24.10
2023-03-22T07:02:37.875Z,27.73
2023-03-22T07:05:25.168Z,20.33
2023-03-22T07:07:52.189Z,18.90
2023-03-22T07:10:19.198Z,23.95
2023-03-22T07:12:46.092Z,19.52
2023-03-22T07:15:17.463Z,20.67
2023-03-22T07:18:10.414Z,20.95
2023-03-22T07:20:38.738Z,21.48
2023-03-22T07:23:06.481Z,17.30
2023-03-22T07:25:40.475Z,18.38
2023-03-22T07:28:18.313Z,22.20
2023-03-22T07:30:45.522Z,22.60
2023-03-22T07:33:13.055Z,16.42
2023-03-22T07:35:42.207Z,21.97
2023-03-22T07:38:10.313Z,22.10
2023-03-22T07:40:37.529Z,20.88
2023-03-22T07:43:04.717Z,22.65
2023-03-22T07:45:41.712Z,21.55
2023-03-22T07:48:39.058Z,24.23
2023-03-22T07:51:35.288Z,24.02
2023-03-22T07:54:05.698Z,25.20
2023-03-22T07:56:34.238Z,20.58
2023-03-22T07:59:01.236Z,22.17
2023-03-22T08:01:28.448Z,24.10
2023-03-22T08:04:06.497Z,21.90
2023-03-22T08:06:58.700Z,25.95
2023-03-22T08:09:27.296Z,28.80
2023-03-22T08:11:55.471Z,23.88
2023-03-22T08:14:34.019Z,30.80
2023-03-22T08:17:05.759Z,27.13
2023-03-22T08:19:34.105Z,31.92
2023-03-22T08:22:01.322Z,22.58
2023-03-22T08:24:47.096Z,30.88
2023-03-22T08:27:24.786Z,24.98
2023-03-22T08:29:51.859Z,21.45
2023-03-22T08:32:19.156Z,26.80
2023-03-22T08:34:46.600Z,24.70
2023-03-22T08:37:13.896Z,19.58
2023-03-22T08:39:44.913Z,21.77
2023-03-22T08:42:25.590Z,19.27
2023-03-22T08:44:52.578Z,19.88
2023-03-22T08:47:22.082Z,20.98
2023-03-22T08:49:53.278Z,19.25
2023-03-22T08:52:27.949Z,21.42
2023-03-22T08:55:14.296Z,20.83
2023-03-22T08:58:18.601Z,18.75
2023-03-22T09:01:15.947Z,19.23
2023-03-22T09:03:50.402Z,17.90
2023-03-22T09:06:17.466Z,21.13
2023-03-22T09:08:44.358Z,23.15
2023-03-22T09:11:16.641Z,19.02
2023-03-22T09:13:46.024Z,17.13
2023-03-22T09:16:13.371Z,22.70
2023-03-22T09:18:41.318Z,18.85
2023-03-22T09:21:12.554Z,20.90
2023-03-22T09:23:48.093Z,18.52
2023-03-22T09:26:17.655Z,17.67
2023-03-22T09:28:47.303Z,15.80
2023-03-22T09:31:14.583Z,19.20
2023-03-22T09:33:42.153Z,21.40
2023-03-22T09:36:11.983Z,20.25
2023-03-22T09:38:42.153Z,21.25
2023-03-22T09:41:17.706Z,24.90
2023-03-22T09:44:06.629Z,18.30
2023-03-22T09:46:38.199Z,19.23
2023-03-22T09:49:12.741Z,16.17
2023-03-22T09:51:48.583Z,19.83
2023-03-22T09:54:21.519Z,20.77
2023-03-22T09:56:55.841Z,20.15
2023-03-22T09:59:40.027Z,21.77
2023-03-22T10:02:34.152Z,20.38
2023-03-22T10:05:19.087Z,26.98
2023-03-22T10:08:22.826Z,20.73
2023-03-22T10:10:52.019Z,23.15
2023-03-22T10:13:21.895Z,23.63
2023-03-22T10:15:59.126Z,21.02
2023-03-22T10:18:36.153Z,18.98
2023-03-22T10:21:04.723Z,21.58
2023-03-22T10:23:48.083Z,23.50
2023-03-22T10:26:34.642Z,19.20
2023-03-22T10:29:04.492Z,17.10
2023-03-22T10:31:33.705Z,19.38
2023-03-22T10:34:16.639Z,18.80
2023-03-22T10:36:45.518Z,18.90
2023-03-22T10:39:24.565Z,17.80
2023-03-22T10:41:56.892Z,22.40
2023-03-22T10:44:28.790Z,18.38
2023-03-22T10:46:59.373Z,20.65
2023-03-22T10:49:37.209Z,20.52
2023-03-22T10:52:20.262Z,17.90
2023-03-22T10:54:47.213Z,18.20
2023-03-22T10:57:14.177Z,21.02
2023-03-22T10:59:51.961Z,18.73
2023-03-22T11:02:28.858Z,20.77
2023-03-22T11:04:59.888Z,18.30
2023-03-22T11:07:37.373Z,20.30
2023-03-22T11:10:11.399Z,17.88
2023-03-22T11:12:55.126Z,16.85
2023-03-22T11:15:30.504Z,15.73
2023-03-22T11:18:12.378Z,16.77
2023-03-22T11:20:52.674Z,18.45
2023-03-22T11:23:21.599Z,15.25
2023-03-22T11:25:50.755Z,17.47
2023-03-22T11:28:21.907Z,17.63
2023-03-22T11:31:00.097Z,14.35
2023-03-22T11:33:27.572Z,18.48
2023-03-22T11:36:04.617Z,15.95
2023-03-22T11:38:40.659Z,24.73
2023-03-22T11:41:29.670Z,21.73
2023-03-22T11:44:01.880Z,26.75
2023-03-22T11:46:29.894Z,20.30
2023-03-22T11:49:08.104Z,19.60
2023-03-22T11:51:38.400Z,20.65
2023-03-22T11:54:13.812Z,18.38
2023-03-22T11:56:45.688Z,24.08
2023-03-22T11:59:24.081Z,36.92
2023-03-22T12:01:57.002Z,16.40
2023-03-22T12:04:28.843Z,20.88
2023-03-22T12:06:59.201Z,16.95
2023-03-22T12:09:41.302Z,21.40
2023-03-22T12:12:21.551Z,18.42
2023-03-22T12:15:03.984Z,18.88
2023-03-22T12:17:40.583Z,14.35
2023-03-22T12:20:13.303Z,9.35
2023-03-22T12:22:45.687Z,9.48
2023-03-22T12:25:17.454Z,8.20
2023-03-22T12:27:49.997Z,7.93
2023-03-22T12:30:21.782Z,9.00
2023-03-22T12:33:00.115Z,8.13
2023-03-22T12:35:31.398Z,7.82
2023-03-22T12:38:02.021Z,7.30
2023-03-22T12:40:34.460Z,6.75
2023-03-22T12:43:25.357Z,7.47
2023-03-22T12:45:58.492Z,6.30
2023-03-22T12:48:48.882Z,6.38
2023-03-22T12:51:15.946Z,7.13
2023-03-22T12:53:49.015Z,8.45
2023-03-22T12:56:19.032Z,8.07
2023-03-22T12:58:53.753Z,8.32
2023-03-22T13:01:33.505Z,6.53
2023-03-22T13:04:20.796Z,7.90
2023-03-22T13:06:50.554Z,6.88
2023-03-22T13:09:19.761Z,17.45
2023-03-22T13:12:06.659Z,6.75
2023-03-22T13:14:51.700Z,7.65
2023-03-22T13:17:25.434Z,6.65
2023-03-22T13:19:52.653Z,6.03
2023-03-22T13:22:30.533Z,6.47
2023-03-22T13:25:10.123Z,8.10
2023-03-22T13:27:51.527Z,6.22
2023-03-22T13:30:26.656Z,6.40
2023-03-22T13:33:21.161Z,5.55
2023-03-22T13:36:01.264Z,4.80
2023-03-22T13:38:42.841Z,5.78
2023-03-22T13:41:15.691Z,4.95
2023-03-22T13:43:54.771Z,5.57
2023-03-22T13:46:21.777Z,4.50
2023-03-22T13:48:49.487Z,4.93
2023-03-22T13:51:29.809Z,4.90
2023-03-22T13:54:08.892Z,6.50
2023-03-22T13:56:42.212Z,4.53
2023-03-22T13:59:29.881Z,6.38
2023-03-22T14:02:24.907Z,6.32
2023-03-22T14:04:58.082Z,4.30
2023-03-22T14:07:50.879Z,4.82
2023-03-22T14:10:31.409Z,6.75
2023-03-22T14:13:00.048Z,5.30
2023-03-22T14:15:32.563Z,4.40
2023-03-22T14:18:07.984Z,4.18
2023-03-22T14:20:37.663Z,4.28
